Time;durP1;ratioP1;P1;durP2;ratioP2;P2;SDS_P1;SDS_P2;PMS_P1;PMS_P2;Temp;Humidity;BMP_temperature;BMP_pressure;BME280_temperature;BME280_humidity;BME280_pressure;Samples;Min_cycle;Max_cycle;Signal;HPM_P1;HPM_P2
2024/02/09 00:01:13;;;;;;;31.00;7.20;;;7.10;99.90;;;;;;5020006;28;20029;-83
2024/02/09 00:03:39;;;;;;;23.42;6.82;;;7.20;99.90;;;;;;5019206;28;20026;-83
2024/02/09 00:06:08;;;;;;;21.73;7.10;;;7.30;99.90;;;;;;5019042;28;20022;-83
2024/02/09 00:08:36;;;;;;;20.08;6.30;;;7.30;99.90;;;;;;5020653;28;20080;-83
2024/02/09 00:11:02;;;;;;;17.05;5.43;;;7.40;99.90;;;;;;5017696;28;20029;-84
2024/02/09 00:13:28;;;;;;;17.10;6.03;;;7.60;99.90;;;;;;5019939;28;20060;-85
2024/02/09 00:15:54;;;;;;;18.95;6.35;;;7.70;99.90;;;;;;5019988;28;20017;-85
2024/02/09 00:18:22;;;;;;;14.63;5.40;;;7.60;99.90;;;;;;5018666;28;20030;-84
2024/02/09 00:20:50;;;;;;;20.65;6.72;;;7.70;99.90;;;;;;5018977;28;20026;-84
2024/02/09 00:23:18;;;;;;;13.55;5.43;;;7.80;99.90;;;;;;5019117;28;20022;-83
2024/02/09 00:25:44;;;;;;;16.27;6.20;;;8.00;99.90;;;;;;5019064;28;20032;-83
2024/02/09 00:28:11;;;;;;;23.67;6.03;;;7.80;99.90;;;;;;5019634;28;20719;-84
2024/02/09 00:30:41;;;;;;;19.48;5.25;;;7.90;99.90;;;;;;5018951;28;20235;-83
2024/02/09 00:33:08;;;;;;;18.65;5.63;;;8.00;99.90;;;;;;5020515;28;20359;-84
2024/02/09 00:35:39;;;;;;;21.55;5.65;;;8.00;99.90;;;;;;5020038;28;20026;-84
2024/02/09 00:38:05;;;;;;;18.88;4.57;;;8.10;99.90;;;;;;5018243;28;20493;-84
2024/02/09 00:40:31;;;;;;;20.50;5.05;;;8.10;99.90;;;;;;5018453;28;20076;-84
2024/02/09 00:43:01;;;;;;;20.00;5.88;;;8.90;99.90;;;;;;5018485;28;20060;-84
2024/02/09 00:45:30;;;;;;;20.52;4.55;;;8.50;99.90;;;;;;5018961;28;20029;-83
2024/02/09 00:47:57;;;;;;;15.63;4.70;;;8.30;99.90;;;;;;5018290;28;20014;-84
2024/02/09 00:50:23;;;;;;;19.75;4.97;;;8.40;99.90;;;;;;5018480;28;20084;-83
2024/02/09 00:52:50;;;;;;;18.65;4.68;;;8.40;99.90;;;;;;5018166;28;20026;-83
2024/02/09 00:55:18;;;;;;;17.30;4.45;;;8.80;99.90;;;;;;5020266;28;20029;-84
2024/02/09 00:57:45;;;;;;;20.65;4.70;;;8.50;99.90;;;;;;5018530;28;20057;-84
2024/02/09 01:00:15;;;;;;;19.95;5.78;;;8.60;99.90;;;;;;5019128;28;20026;-84
2024/02/09 01:02:40;;;;;;;20.25;4.63;;;8.60;99.90;;;;;;5018272;28;20018;-84
2024/02/09 01:05:13;;;;;;;15.73;4.20;;;10.40;99.90;;;;;;5018390;28;20028;-84
2024/02/09 01:07:40;;;;;;;13.85;4.88;;;8.70;99.90;;;;;;5018694;28;20492;-84
2024/02/09 01:10:07;;;;;;;21.55;4.40;;;8.70;99.90;;;;;;5019827;28;20026;-83
2024/02/09 02:45:30;;;;;;;16.90;3.78;;;9.30;99.90;;;;;;5022155;28;20033;-83
2024/02/09 03:04:41;;;;;;;14.02;3.15;;;9.40;99.90;;;;;;4980424;28;20086;-84
2024/02/09 03:07:07;;;;;;;18.02;2.83;;;9.40;99.90;;;;;;4995827;28;20046;-83
2024/02/09 03:09:32;;;;;;;15.23;3.67;;;9.30;99.90;;;;;;5019999;28;20076;-83
2024/02/09 03:11:59;;;;;;;13.75;3.47;;;9.30;99.90;;;;;;5019841;28;20030;-83
2024/02/09 03:14:27;;;;;;;10.30;2.58;;;9.30;99.90;;;;;;5020217;28;20041;-83
2024/02/09 03:16:54;;;;;;;10.23;1.93;;;9.30;99.90;;;;;;5019520;28;20041;-84
2024/02/09 03:19:20;;;;;;;11.07;2.65;;;9.40;99.90;;;;;;5019952;28;20018;-84
2024/02/09 03:21:46;;;;;;;11.68;2.63;;;;;;;;;;5022160;28;20084;-83
2024/02/09 03:24:12;;;;;;;9.25;2.00;;;;;;;;;;5021433;28;20101;-83
2024/02/09 03:26:38;;;;;;;16.90;2.75;;;;;;;;;;5019946;28;20033;-83
2024/02/09 03:29:04;;;;;;;9.07;2.17;;;9.30;99.90;;;;;;5019386;28;20478;-83
2024/02/09 03:31:31;;;;;;;11.40;2.30;;;9.30;99.90;;;;;;5020556;28;20033;-84
2024/02/09 03:33:57;;;;;;;12.85;3.05;;;9.40;99.90;;;;;;5019158;28;20032;-83
2024/02/09 03:36:23;;;;;;;8.10;1.60;;;9.40;99.90;;;;;;5020210;28;20440;-84
2024/02/09 03:38:49;;;;;;;12.23;2.78;;;;;;;;;;5019132;28;20433;-84
2024/02/09 03:41:15;;;;;;;8.45;1.73;;;9.40;99.90;;;;;;5019428;28;20057;-83
2024/02/09 03:43:41;;;;;;;8.90;1.70;;;9.40;99.90;;;;;;5019013;28;20026;-83
2024/02/09 03:46:07;;;;;;;12.40;1.30;;;9.40;99.90;;;;;;5018640;28;20108;-83
2024/02/09 03:48:32;;;;;;;13.77;2.25;;;9.40;99.90;;;;;;5018806;28;20026;-82
2024/02/09 03:50:58;;;;;;;7.57;1.70;;;9.40;99.90;;;;;;5019472;28;20469;-83
2024/02/09 03:53:23;;;;;;;7.70;1.85;;;10.70;99.90;;;;;;5020053;28;20024;-83
2024/02/09 03:55:49;;;;;;;8.48;1.30;;;9.40;99.90;;;;;;5018917;28;20018;-84
2024/02/09 03:58:17;;;;;;;11.13;2.30;;;9.40;99.90;;;;;;5020150;28;20544;-84
2024/02/09 04:00:43;;;;;;;7.13;1.60;;;9.30;99.90;;;;;;5019955;28;20028;-84
2024/02/09 04:03:09;;;;;;;8.77;2.58;;;9.40;99.90;;;;;;5020123;28;20026;-83
2024/02/09 04:05:36;;;;;;;7.38;2.17;;;9.40;99.90;;;;;;5018848;28;20080;-83
2024/02/09 04:08:04;;;;;;;9.90;2.47;;;9.40;99.90;;;;;;5018947;28;20014;-83
2024/02/09 04:10:29;;;;;;;8.20;1.35;;;9.40;99.90;;;;;;5018975;28;20049;-83
2024/02/09 04:12:55;;;;;;;7.28;1.30;;;9.50;99.90;;;;;;5018830;28;20018;-83
2024/02/09 04:15:21;;;;;;;16.75;2.20;;;9.50;99.90;;;;;;5018599;28;20034;-84
2024/02/09 04:17:51;;;;;;;7.05;1.67;;;9.50;99.90;;;;;;5019315;28;20022;-84
2024/02/09 04:20:17;;;;;;;8.68;2.28;;;9.50;99.90;;;;;;5021373;28;20010;-85
2024/02/09 04:22:42;;;;;;;7.97;1.58;;;10.30;99.90;;;;;;5018612;28;20076;-84
2024/02/09 04:25:08;;;;;;;12.02;2.55;;;10.00;99.90;;;;;;5019631;28;20453;-83
2024/02/09 04:27:34;;;;;;;8.23;1.48;;;9.50;99.90;;;;;;5018871;28;20022;-83
2024/02/09 04:30:00;;;;;;;8.35;1.38;;;9.50;99.90;;;;;;5019423;28;20460;-83
2024/02/09 04:32:26;;;;;;;5.20;1.42;;;9.50;99.90;;;;;;5019386;28;20064;-83
2024/02/09 04:34:52;;;;;;;10.93;1.58;;;9.50;99.90;;;;;;5019442;28;20064;-84
2024/02/09 04:37:21;;;;;;;8.15;2.20;;;;;;;;;;5021212;28;20030;-83
2024/02/09 04:39:49;;;;;;;;;;;9.50;99.90;;;;;;5019910;28;20026;-84
2024/02/09 04:42:15;;;;;;;4.95;0.93;;;9.60;99.90;;;;;;5019842;28;19905;-83
2024/02/09 04:44:40;;;;;;;5.57;1.70;;;12.00;99.90;;;;;;5021213;28;20432;-84
2024/02/09 04:47:06;;;;;;;11.63;1.70;;;9.50;99.90;;;;;;5020217;28;20052;-83
2024/02/09 04:49:31;;;;;;;3.83;1.33;;;9.50;99.90;;;;;;5019669;28;20029;-84
2024/02/09 04:51:57;;;;;;;11.73;1.23;;;9.60;99.90;;;;;;5019447;28;20030;-83
2024/02/09 04:54:24;;;;;;;7.90;0.90;;;10.40;99.90;;;;;;5019506;28;20021;-84
2024/02/09 04:56:49;;;;;;;4.43;0.80;;;;;;;;;;5018058;28;20026;-83
2024/02/09 04:59:15;;;;;;;2.42;1.00;;;9.60;99.90;;;;;;5019361;28;20026;-84
2024/02/09 05:01:41;;;;;;;3.47;0.90;;;11.10;99.90;;;;;;5020188;28;20030;-83
2024/02/09 05:04:12;;;;;;;4.82;0.85;;;9.60;99.90;;;;;;5017763;28;20022;-83
2024/02/09 05:06:38;;;;;;;5.85;0.90;;;9.60;99.90;;;;;;5018032;28;20026;-83
2024/02/09 05:09:11;;;;;;;2.92;0.88;;;9.60;99.90;;;;;;5017793;28;20072;-83
2024/02/09 05:11:38;;;;;;;2.35;0.93;;;9.70;99.90;;;;;;5018305;28;20032;-83
2024/02/09 05:14:05;;;;;;;5.10;1.42;;;9.60;99.90;;;;;;5018909;28;20022;-83
2024/02/09 05:16:31;;;;;;;6.85;1.05;;;;;;;;;;5018796;28;20064;-85
2024/02/09 05:18:57;;;;;;;4.30;1.15;;;9.60;99.90;;;;;;5018240;28;20022;-83
2024/02/09 05:21:22;;;;;;;8.25;1.55;;;9.70;99.90;;;;;;5019349;28;20026;-83
2024/02/09 05:23:49;;;;;;;6.03;1.05;;;9.70;99.90;;;;;;5018097;28;20026;-83
2024/02/09 05:26:15;;;;;;;3.95;0.85;;;9.70;99.90;;;;;;5017965;28;20054;-83
2024/02/09 05:28:42;;;;;;;9.68;1.38;;;9.70;99.90;;;;;;5018720;28;20093;-83
2024/02/09 05:31:16;;;;;;;5.57;1.27;;;9.70;99.90;;;;;;5017601;28;20028;-83
2024/02/09 05:33:43;;;;;;;8.00;0.90;;;9.60;99.90;;;;;;5018723;28;20072;-83
2024/02/09 05:36:26;;;;;;;5.28;1.52;;;9.60;99.90;;;;;;5019318;28;20033;-83
2024/02/09 05:38:53;;;;;;;4.70;0.90;;;9.70;99.90;;;;;;5017591;28;20116;-83
2024/02/09 05:41:20;;;;;;;7.45;0.80;;;9.70;99.90;;;;;;5017069;28;20057;-84
2024/02/09 05:43:48;;;;;;;11.18;1.48;;;9.70;99.90;;;;;;5018331;28;20037;-83
2024/02/09 05:46:16;;;;;;;10.20;1.60;;;9.70;99.90;;;;;;5018501;28;20054;-84
2024/02/09 05:48:43;;;;;;;3.22;0.93;;;9.70;99.90;;;;;;5017714;28;20026;-83
2024/02/09 05:51:15;;;;;;;3.45;0.73;;;9.70;99.90;;;;;;5018411;28;20030;-83
2024/02/09 05:53:41;;;;;;;4.85;0.95;;;9.70;99.90;;;;;;5017819;28;20026;-83
2024/02/09 05:56:20;;;;;;;7.55;0.90;;;9.70;99.90;;;;;;5016705;28;20022;-83
2024/02/09 05:58:51;;;;;;;7.95;0.70;;;9.70;99.90;;;;;;5018588;28;20049;-83
2024/02/09 06:01:17;;;;;;;2.33;1.00;;;;;;;;;;5017732;28;20045;-83
2024/02/09 06:03:44;;;;;;;4.38;1.02;;;9.70;99.90;;;;;;5016798;28;20034;-84
2024/02/09 06:06:15;;;;;;;3.30;0.85;;;9.70;99.90;;;;;;5017207;28;20026;-84
2024/02/09 06:08:46;;;;;;;7.13;1.17;;;9.70;99.90;;;;;;5017599;28;20117;-83
2024/02/09 06:11:13;;;;;;;4.13;1.10;;;9.70;99.90;;;;;;5022882;28;20075;-84
2024/02/09 06:13:42;;;;;;;10.88;1.10;;;10.60;99.90;;;;;;5021718;28;20029;-84
2024/02/09 06:16:07;;;;;;;3.60;1.10;;;9.70;99.90;;;;;;5021826;28;20486;-84
2024/02/09 06:18:33;;;;;;;5.40;0.80;;;;;;;;;;5023182;28;20068;-82
2024/02/09 06:21:00;;;;;;;3.00;0.70;;;9.70;99.90;;;;;;5023494;28;20057;-84
2024/02/09 06:23:26;;;;;;;5.63;1.20;;;;;;;;;;5022666;28;20432;-84
2024/02/09 06:25:52;;;;;;;2.72;0.50;;;9.80;99.90;;;;;;5023843;28;20026;-84
2024/02/09 06:28:21;;;;;;;4.88;0.63;;;9.70;99.90;;;;;;5022344;28;20393;-84
2024/02/09 06:30:47;;;;;;;6.05;0.93;;;;;;;;;;5021972;28;20470;-83
2024/02/09 06:33:19;;;;;;;2.75;0.80;;;9.70;99.90;;;;;;5022446;28;20433;-84
2024/02/09 06:35:45;;;;;;;3.28;0.90;;;9.70;99.90;;;;;;5021890;28;20108;-84
2024/02/09 06:38:11;;;;;;;2.83;0.50;;;9.60;99.90;;;;;;5021668;28;20026;-84
2024/02/09 06:40:38;;;;;;;5.45;1.08;;;9.70;99.90;;;;;;5021760;28;20426;-84
2024/02/09 06:43:04;;;;;;;7.63;1.65;;;10.80;99.90;;;;;;5020283;28;20030;-84
2024/02/09 06:45:30;;;;;;;3.92;0.68;;;9.70;99.90;;;;;;5020372;28;20029;-85
2024/02/09 06:47:56;;;;;;;4.85;0.65;;;9.70;99.90;;;;;;5019572;28;20025;-85
2024/02/09 06:50:22;;;;;;;1.60;0.20;;;;;;;;;;5021001;28;20026;-83
2024/02/09 06:52:48;;;;;;;2.20;0.20;;;9.70;99.90;;;;;;5020735;28;20032;-83
2024/02/09 06:55:19;;;;;;;5.70;0.95;;;9.70;99.90;;;;;;5021530;28;20029;-79
2024/02/09 06:57:45;;;;;;;2.70;0.63;;;9.70;99.90;;;;;;5020452;28;20073;-79
2024/02/09 07:00:15;;;;;;;3.13;0.60;;;9.70;99.90;;;;;;5020701;28;20026;-79
2024/02/09 07:02:41;;;;;;;8.20;1.45;;;9.70;99.90;;;;;;5022366;28;20022;-79
2024/02/09 07:05:15;;;;;;;7.55;0.82;;;11.60;99.90;;;;;;5020225;28;20030;-79
2024/02/09 07:07:43;;;;;;;3.72;0.80;;;9.80;99.90;;;;;;5021113;28;20052;-79
2024/02/09 07:10:11;;;;;;;5.80;0.80;;;9.80;99.90;;;;;;5019966;28;20033;-79
2024/02/09 07:12:37;;;;;;;5.07;0.73;;;9.80;99.90;;;;;;5019856;28;20030;-80
2024/02/09 07:15:03;;;;;;;4.68;0.70;;;9.80;99.90;;;;;;5021103;28;20030;-79
2024/02/09 07:17:29;;;;;;;4.82;0.73;;;9.70;99.90;;;;;;5019765;28;20386;-80
2024/02/09 07:19:54;;;;;;;8.07;1.17;;;9.70;99.90;;;;;;5020964;28;20018;-79
2024/02/09 07:22:20;;;;;;;3.90;0.60;;;9.80;99.90;;;;;;5019836;28;20033;-79
2024/02/09 07:24:45;;;;;;;7.18;0.73;;;9.80;99.90;;;;;;5021063;28;20030;-78
2024/02/09 07:27:13;;;;;;;3.55;0.70;;;9.90;99.90;;;;;;5019436;28;20030;-78
2024/02/09 07:29:39;;;;;;;4.80;0.50;;;9.80;99.90;;;;;;5017649;28;20028;-78
2024/02/09 07:32:07;;;;;;;4.53;0.45;;;9.90;99.90;;;;;;5016198;28;20026;-78
2024/02/09 07:34:33;;;;;;;7.53;1.27;;;9.80;99.90;;;;;;5019579;28;20014;-81
2024/02/09 07:36:58;;;;;;;4.07;0.68;;;9.90;99.90;;;;;;5022100;28;20026;-81
2024/02/09 07:39:24;;;;;;;7.03;0.90;;;9.90;99.90;;;;;;5020992;28;20109;-83
2024/02/09 07:41:49;;;;;;;8.57;1.10;;;9.90;99.90;;;;;;5023108;28;20025;-80
2024/02/09 07:44:15;;;;;;;4.75;1.38;;;9.90;99.90;;;;;;5021721;28;20033;-81
2024/02/09 07:46:41;;;;;;;7.70;0.85;;;9.90;99.90;;;;;;5022520;28;20064;-81
2024/02/09 07:49:06;;;;;;;9.73;1.52;;;9.90;99.90;;;;;;5022753;28;20029;-81
2024/02/09 07:51:33;;;;;;;8.65;0.60;;;9.90;99.90;;;;;;5022926;28;20029;-80
2024/02/09 07:53:59;;;;;;;8.85;1.13;;;;;;;;;;5023047;28;20018;-82
2024/02/09 07:56:25;;;;;;;7.38;0.98;;;9.90;99.90;;;;;;5020463;28;20084;-78
2024/02/09 07:58:52;;;;;;;6.05;0.70;;;9.90;99.90;;;;;;5016234;28;20026;-77
2024/02/09 08:01:21;;;;;;;5.45;0.57;;;10.00;99.90;;;;;;5015093;28;20464;-78
2024/02/09 08:03:53;;;;;;;4.88;0.63;;;10.00;99.90;;;;;;5016722;28;20032;-77
2024/02/09 08:06:21;;;;;;;4.80;0.93;;;10.00;99.90;;;;;;5016721;28;20084;-77
2024/02/09 08:08:52;;;;;;;4.72;0.45;;;10.00;99.90;;;;;;5015443;28;20022;-77
2024/02/09 08:11:21;;;;;;;7.57;0.75;;;10.10;99.90;;;;;;5015457;28;20034;-77
2024/02/09 08:13:48;;;;;;;;;;;10.00;99.90;;;;;;5016348;28;20030;-78
2024/02/09 08:16:14;;;;;;;6.55;0.60;;;10.10;99.90;;;;;;5031474;28;19909;-77
2024/02/09 08:18:39;;;;;;;6.22;1.65;;;10.10;99.90;;;;;;5015986;28;20072;-77
2024/02/09 08:21:06;;;;;;;8.02;0.60;;;10.10;99.90;;;;;;5014153;28;20034;-76
2024/02/09 08:23:33;;;;;;;6.07;0.88;;;;;;;;;;5015925;28;20478;-77
2024/02/09 08:25:58;;;;;;;6.50;0.65;;;10.10;99.90;;;;;;5016748;28;20474;-78
2024/02/09 08:28:25;;;;;;;7.13;1.85;;;10.20;99.90;;;;;;5015649;28;20025;-77
2024/02/09 08:30:50;;;;;;;3.30;0.82;;;10.20;99.90;;;;;;5014843;28;20014;-77
2024/02/09 08:33:16;;;;;;;4.85;0.43;;;10.20;99.90;;;;;;5013697;28;20064;-77
2024/02/09 08:35:42;;;;;;;2.47;0.60;;;10.30;99.90;;;;;;5015458;28;20113;-77
2024/02/09 08:38:08;;;;;;;6.15;0.73;;;10.20;99.90;;;;;;5015068;28;20036;-78
2024/02/09 08:40:34;;;;;;;3.00;0.52;;;10.30;99.90;;;;;;5016326;28;20094;-77
2024/02/09 08:43:00;;;;;;;4.65;0.77;;;10.30;99.90;;;;;;5013949;28;20034;-77
2024/02/09 08:45:27;;;;;;;3.95;0.68;;;10.30;99.90;;;;;;5014924;28;20109;-78
2024/02/09 08:47:52;;;;;;;3.17;0.90;;;10.30;99.90;;;;;;5015034;28;20026;-77
2024/02/09 08:50:18;;;;;;;4.95;0.50;;;10.40;99.90;;;;;;5016002;28;20040;-77
2024/02/09 08:52:43;;;;;;;3.17;0.30;;;10.40;99.90;;;;;;5015671;28;20023;-77
2024/02/09 08:55:10;;;;;;;4.32;0.20;;;10.40;99.90;;;;;;5016193;28;20062;-77
2024/02/09 08:57:35;;;;;;;8.75;1.40;;;10.40;99.90;;;;;;5014115;28;20034;-77
2024/02/09 09:00:01;;;;;;;8.90;1.05;;;10.40;99.90;;;;;;5015996;28;20492;-78
2024/02/09 09:02:27;;;;;;;8.55;0.68;;;10.50;99.90;;;;;;5014522;28;20044;-78
2024/02/09 09:04:52;;;;;;;7.78;0.68;;;10.50;99.90;;;;;;5015004;28;20041;-77
2024/02/09 09:07:18;;;;;;;4.65;1.02;;;10.60;99.90;;;;;;5015660;28;20018;-77
2024/02/09 09:09:44;;;;;;;4.18;0.65;;;10.60;99.90;;;;;;5014090;28;20060;-78
2024/02/09 09:12:09;;;;;;;3.60;0.28;;;10.60;99.90;;;;;;5016789;28;20481;-77
2024/02/09 09:14:36;;;;;;;5.15;0.50;;;10.60;99.90;;;;;;5016415;28;20496;-78
2024/02/09 09:17:02;;;;;;;3.67;0.95;;;10.60;99.90;;;;;;5015954;28;20076;-78
2024/02/09 09:19:28;;;;;;;6.75;0.85;;;10.60;99.90;;;;;;5014709;28;20022;-78
2024/02/09 09:21:53;;;;;;;4.32;0.88;;;10.60;99.90;;;;;;5015921;28;20393;-78
2024/02/09 09:24:19;;;;;;;7.38;0.40;;;10.60;99.90;;;;;;5014790;28;20022;-78
2024/02/09 09:26:45;;;;;;;8.20;0.50;;;10.70;99.90;;;;;;5014064;28;20037;-77
2024/02/09 09:29:12;;;;;;;10.35;1.48;;;11.00;99.90;;;;;;5013583;28;20022;-78
2024/02/09 09:31:38;;;;;;;6.43;0.52;;;10.70;99.90;;;;;;5015330;28;20026;-77
2024/02/09 09:34:04;;;;;;;6.38;0.98;;;10.70;99.90;;;;;;5014214;28;20022;-78
2024/02/09 09:36:31;;;;;;;3.42;0.57;;;10.80;99.90;;;;;;5015402;28;20362;-78
2024/02/09 09:38:58;;;;;;;6.55;0.57;;;10.80;99.90;;;;;;5015138;28;20022;-78
2024/02/09 09:41:24;;;;;;;3.78;0.40;;;10.90;99.90;;;;;;5014693;28;20018;-78
2024/02/09 09:43:50;;;;;;;3.03;0.88;;;10.90;99.90;;;;;;5017808;28;20520;-77
2024/02/09 09:46:21;;;;;;;6.35;0.70;;;10.80;99.90;;;;;;5017075;28;20030;-78
2024/02/09 09:48:48;;;;;;;6.00;0.60;;;10.90;99.90;;;;;;5017695;28;20533;-77
2024/02/09 09:51:16;;;;;;;7.88;1.17;;;10.90;99.90;;;;;;5017628;28;20029;-77
2024/02/09 09:53:44;;;;;;;4.90;0.55;;;10.90;99.90;;;;;;5018950;28;20366;-78
2024/02/09 09:56:10;;;;;;;3.25;0.75;;;10.90;99.90;;;;;;5017260;28;20052;-78
2024/02/09 09:58:37;;;;;;;7.22;0.70;;;10.90;99.90;;;;;;5018506;28;20040;-77
2024/02/09 10:01:05;;;;;;;3.25;0.60;;;11.00;99.90;;;;;;5018476;28;20061;-77
2024/02/09 10:03:32;;;;;;;5.40;0.90;;;11.20;99.90;;;;;;5017846;28;20037;-77
2024/02/09 10:05:58;;;;;;;3.50;1.02;;;11.20;99.90;;;;;;5017052;28;20018;-77
2024/02/09 10:08:24;;;;;;;3.70;0.73;;;11.20;99.90;;;;;;5018280;28;20033;-76
2024/02/09 10:10:53;;;;;;;6.22;0.80;;;11.10;99.90;;;;;;5017380;28;20026;-77
2024/02/09 10:13:22;;;;;;;4.97;0.45;;;11.10;99.90;;;;;;5018321;28;20058;-77
2024/02/09 10:15:48;;;;;;;4.35;0.95;;;;;;;;;;5016584;28;20441;-77
2024/02/09 10:18:14;;;;;;;3.05;0.55;;;11.10;99.90;;;;;;5018761;28;20159;-76
2024/02/09 10:20:46;;;;;;;8.77;1.13;;;11.10;99.90;;;;;;5017815;28;20155;-76
2024/02/09 10:23:12;;;;;;;5.57;1.10;;;11.30;99.90;;;;;;5016599;28;20116;-75
2024/02/09 10:25:39;;;;;;;9.95;1.20;;;11.40;99.90;;;;;;5017734;28;20505;-78
2024/02/09 10:28:04;;;;;;;4.72;1.23;;;11.50;99.90;;;;;;5019526;28;20032;-75
2024/02/09 10:30:30;;;;;;;3.20;0.60;;;11.70;99.90;;;;;;5018383;28;20030;-77
2024/02/09 10:32:57;;;;;;;3.08;0.52;;;11.70;99.90;;;;;;5019071;28;20022;-78
2024/02/09 10:35:23;;;;;;;4.38;0.75;;;11.80;99.90;;;;;;5019513;28;20096;-78
2024/02/09 10:37:49;;;;;;;4.28;0.57;;;11.90;99.90;;;;;;5017055;28;20022;-78
2024/02/09 10:40:16;;;;;;;3.15;0.30;;;12.00;99.90;;;;;;5016677;28;20029;-78
2024/02/09 10:42:45;;;;;;;3.38;0.28;;;12.10;99.90;;;;;;5016452;28;20084;-78
2024/02/09 10:45:12;;;;;;;8.18;1.02;;;12.20;99.90;;;;;;5017432;28;20033;-77
2024/02/09 10:47:38;;;;;;;7.85;0.73;;;12.30;99.90;;;;;;5017356;28;20036;-77
2024/02/09 10:50:06;;;;;;;3.75;0.10;;;12.50;99.90;;;;;;5015693;28;20029;-76
2024/02/09 10:52:44;;;;;;;0.90;0.10;;;12.40;99.90;;;;;;5017108;28;20022;-77
2024/02/09 10:55:13;;;;;;;0.40;0.03;;;12.30;99.90;;;;;;5014877;28;20375;-77
2024/02/09 10:57:41;;;;;;;1.10;0.32;;;12.30;99.90;;;;;;5015311;28;20277;-75
2024/02/09 11:00:10;;;;;;;2.67;0.15;;;12.30;99.90;;;;;;5016148;28;20048;-77
2024/02/09 11:02:36;;;;;;;1.00;0.20;;;12.20;99.90;;;;;;5016509;28;20589;-78
2024/02/09 11:05:03;;;;;;;6.35;0.52;;;12.20;99.90;;;;;;5016022;28;20044;-78
2024/02/09 11:07:30;;;;;;;0.93;0.20;;;12.20;99.90;;;;;;5016158;28;20014;-78
2024/02/09 11:09:58;;;;;;;3.25;0.47;;;12.20;99.90;;;;;;5017704;28;20058;-77
2024/02/09 11:12:24;;;;;;;4.17;0.10;;;12.00;99.90;;;;;;5017154;28;20474;-78
2024/02/09 11:14:50;;;;;;;2.95;0.30;;;11.90;99.90;;;;;;5016812;28;20022;-77
2024/02/09 11:17:18;;;;;;;5.40;1.33;;;11.80;99.90;;;;;;5017290;28;20049;-77
2024/02/09 11:19:44;;;;;;;;;;;11.80;99.90;;;;;;5016189;28;20014;-77
2024/02/09 11:22:11;;;;;;;2.25;0.30;;;11.80;99.90;;;;;;5017719;28;19929;-78
2024/02/09 11:24:37;;;;;;;3.08;0.55;;;11.80;99.90;;;;;;5016846;28;20080;-78
2024/02/09 11:27:05;;;;;;;1.85;0.20;;;11.60;99.90;;;;;;5016714;28;20030;-78
2024/02/09 11:29:32;;;;;;;7.68;0.75;;;11.60;99.90;;;;;;5016080;28;20087;-77
2024/02/09 11:32:02;;;;;;;3.88;0.45;;;11.60;99.90;;;;;;5016193;28;20026;-78
2024/02/09 11:34:29;;;;;;;2.47;0.90;;;11.60;99.90;;;;;;5015419;28;20113;-77
2024/02/09 11:36:58;;;;;;;3.22;0.30;;;11.50;99.90;;;;;;5018202;28;20022;-77
2024/02/09 11:39:25;;;;;;;2.33;0.32;;;11.50;99.90;;;;;;5016277;28;20029;-78
2024/02/09 11:41:51;;;;;;;3.13;0.85;;;11.50;99.90;;;;;;5015769;28;20460;-78
2024/02/09 11:44:17;;;;;;;4.22;1.00;;;11.50;99.90;;;;;;5016847;28;20029;-77
2024/02/09 11:46:44;;;;;;;8.90;0.73;;;11.40;99.90;;;;;;5015765;28;20493;-78
2024/02/09 11:49:11;;;;;;;5.25;0.63;;;11.40;99.90;;;;;;5018568;28;20049;-78
2024/02/09 11:51:37;;;;;;;3.15;0.30;;;11.50;99.90;;;;;;5016792;28;20026;-78
2024/02/09 11:54:07;;;;;;;5.97;0.57;;;11.40;99.90;;;;;;5015984;28;20018;-78
2024/02/09 11:56:35;;;;;;;5.75;0.93;;;11.30;99.90;;;;;;5016046;28;20052;-78
2024/02/09 11:59:03;;;;;;;1.33;0.45;;;11.40;99.90;;;;;;5016362;28;20018;-78
2024/02/09 12:01:29;;;;;;;5.50;0.63;;;11.30;99.90;;;;;;5017414;28;20041;-78
2024/02/09 12:03:55;;;;;;;1.85;0.40;;;11.30;99.90;;;;;;5014622;28;20041;-77
2024/02/09 12:06:24;;;;;;;9.55;0.63;;;11.30;99.90;;;;;;5015884;28;20030;-77
2024/02/09 12:08:53;;;;;;;5.88;0.82;;;11.30;99.90;;;;;;5015566;28;20111;-78
2024/02/09 12:11:19;;;;;;;7.78;0.93;;;11.30;99.90;;;;;;5014752;28;20026;-78
2024/02/09 12:13:48;;;;;;;1.83;0.50;;;11.30;99.90;;;;;;5010540;28;20026;-77
2024/02/09 12:16:16;;;;;;;11.80;2.00;;;11.40;99.90;;;;;;5015609;28;20022;-77
2024/02/09 12:18:53;;;;;;;5.30;0.68;;;11.60;99.90;;;;;;5014564;28;20021;-77
2024/02/09 12:21:18;;;;;;;2.58;0.70;;;11.60;99.90;;;;;;5014551;28;20025;-77
2024/02/09 12:23:45;;;;;;;4.88;0.57;;;11.80;99.90;;;;;;5014857;28;20375;-77
2024/02/09 12:26:12;;;;;;;4.80;1.00;;;11.80;99.90;;;;;;5011930;28;20033;-77
2024/02/09 12:28:39;;;;;;;2.08;0.50;;;11.90;99.90;;;;;;5013841;28;20121;-77
2024/02/09 12:31:19;;;;;;;3.78;0.50;;;11.80;99.90;;;;;;5013622;28;20030;-77
2024/02/09 12:33:49;;;;;;;1.88;0.30;;;11.90;99.90;;;;;;5013849;28;20042;-77
2024/02/09 12:36:19;;;;;;;8.52;1.20;;;11.90;99.90;;;;;;5013676;28;20117;-78
2024/02/09 12:38:45;;;;;;;4.45;0.60;;;11.80;99.90;;;;;;5007616;28;20017;-78
2024/02/09 12:41:12;;;;;;;4.97;0.40;;;11.80;99.90;;;;;;4995884;28;20398;-77
2024/02/09 12:43:38;;;;;;;2.03;0.17;;;11.80;99.90;;;;;;4995925;28;20049;-77
2024/02/09 12:46:07;;;;;;;4.10;0.30;;;11.80;99.90;;;;;;5003009;28;20111;-77
2024/02/09 12:48:40;;;;;;;1.42;0.10;;;11.80;99.90;;;;;;5013606;28;20029;-77
2024/02/09 12:51:06;;;;;;;4.15;0.10;;;11.80;99.90;;;;;;5013428;28;20030;-77
2024/02/09 12:53:35;;;;;;;4.60;0.90;;;12.00;99.90;;;;;;5015060;28;20026;-78
2024/02/09 12:56:02;;;;;;;7.88;0.38;;;12.00;99.90;;;;;;5014469;28;20053;-77
2024/02/09 12:58:28;;;;;;;1.70;0.25;;;12.10;99.90;;;;;;5012775;28;20405;-77
2024/02/09 13:00:55;;;;;;;4.68;0.20;;;12.10;99.90;;;;;;5013358;28;20030;-77
2024/02/09 13:03:21;;;;;;;1.00;0.25;;;12.10;99.90;;;;;;5013601;28;20026;-77
2024/02/09 13:05:48;;;;;;;4.20;0.10;;;12.10;99.90;;;;;;5013278;28;20088;-77
2024/02/09 13:08:14;;;;;;;3.47;0.30;;;12.20;99.90;;;;;;5012831;28;20022;-77
2024/02/09 13:10:39;;;;;;;5.13;0.05;;;12.30;99.90;;;;;;5013330;28;20481;-77
2024/02/09 13:13:08;;;;;;;1.42;0.10;;;12.40;99.90;;;;;;5013163;28;20509;-77
2024/02/09 13:15:34;;;;;;;5.25;0.17;;;12.60;99.90;;;;;;5015091;28;20026;-77
2024/02/09 13:18:01;;;;;;;9.57;0.55;;;12.60;99.90;;;;;;5012694;28;20025;-78
2024/02/09 13:20:27;;;;;;;2.42;0.30;;;12.50;99.90;;;;;;4994784;28;20025;-77
2024/02/09 13:22:55;;;;;;;6.82;0.35;;;12.60;99.90;;;;;;5000629;28;20034;-77
2024/02/09 13:25:22;;;;;;;2.72;0.20;;;12.50;99.90;;;;;;5006782;28;20048;-78
2024/02/09 13:27:51;;;;;;;2.72;0.00;;;12.60;99.90;;;;;;5006372;28;20037;-77
2024/02/09 13:30:17;;;;;;;;;;;12.60;99.90;;;;;;5013204;28;20025;-78
2024/02/09 13:32:43;;;;;;;1.92;0.32;;;12.60;99.90;;;;;;5008690;28;19909;-77
2024/02/09 13:35:12;;;;;;;3.58;0.10;;;12.60;99.90;;;;;;4993045;28;20023;-77
2024/02/09 13:37:44;;;;;;;2.72;0.22;;;12.60;99.90;;;;;;4994029;28;20030;-77
2024/02/09 13:40:15;;;;;;;1.23;0.00;;;12.80;99.90;;;;;;4994429;28;20023;-77
2024/02/09 13:42:45;;;;;;;5.60;0.80;;;12.70;99.90;;;;;;4993119;28;20023;-77
2024/02/09 13:45:14;;;;;;;2.25;0.10;;;12.80;99.90;;;;;;4994526;28;20026;-77
2024/02/09 13:47:41;;;;;;;1.08;0.00;;;13.00;99.90;;;;;;4993328;28;20038;-77
2024/02/09 13:50:15;;;;;;;1.42;0.13;;;13.00;99.90;;;;;;4992888;28;20031;-77
2024/02/09 13:52:45;;;;;;;4.30;0.00;;;13.60;99.90;;;;;;4993259;28;20371;-77
2024/02/09 13:55:14;;;;;;;2.58;0.22;;;13.90;99.90;;;;;;4992720;28;20018;-77
2024/02/09 13:57:43;;;;;;;2.38;0.03;;;13.90;99.90;;;;;;4994275;28;20031;-77
2024/02/09 14:00:12;;;;;;;4.25;0.20;;;14.00;99.90;;;;;;4995144;28;20073;-77
2024/02/09 14:02:38;;;;;;;7.07;1.35;;;13.80;99.90;;;;;;4993863;28;20027;-77
2024/02/09 14:05:04;;;;;;;3.30;0.22;;;13.70;99.90;;;;;;4993637;28;20390;-77
2024/02/09 14:07:33;;;;;;;1.75;0.10;;;13.40;99.90;;;;;;4993690;28;20023;-77
2024/02/09 14:09:58;;;;;;;;;;;13.30;99.90;;;;;;4993181;28;20394;-77
2024/02/09 14:12:25;;;;;;;3.25;0.00;;;13.20;99.90;;;;;;4995015;28;19905;-77
2024/02/09 14:14:50;;;;;;;1.02;0.03;;;13.10;99.90;;;;;;4993839;28;20161;-77
2024/02/09 14:17:16;;;;;;;6.80;0.20;;;13.10;99.90;;;;;;4992940;28;20062;-77
2024/02/09 14:19:45;;;;;;;1.38;0.00;;;13.10;99.90;;;;;;4993905;28;20034;-77
2024/02/09 14:22:12;;;;;;;4.25;0.43;;;13.10;99.90;;;;;;4992667;28;20117;-77
2024/02/09 14:24:38;;;;;;;1.35;0.35;;;13.10;99.90;;;;;;4994450;28;20050;-77
2024/02/09 14:27:05;;;;;;;2.38;0.00;;;13.10;99.90;;;;;;4994220;28;20030;-77
2024/02/09 14:29:31;;;;;;;3.00;0.00;;;13.10;99.90;;;;;;4994911;28;20053;-81
2024/02/09 14:31:57;;;;;;;4.55;0.10;;;13.10;99.90;;;;;;4999869;28;20113;-77
2024/02/09 14:34:23;;;;;;;3.35;0.40;;;13.00;99.90;;;;;;4996680;28;20022;-77
2024/02/09 14:36:49;;;;;;;3.30;0.13;;;13.00;99.90;;;;;;4997975;28;20018;-77
2024/02/09 14:39:14;;;;;;;1.80;0.00;;;13.00;99.90;;;;;;4997480;28;20023;-77
2024/02/09 14:41:40;;;;;;;0.88;0.00;;;13.00;99.90;;;;;;4996684;28;20022;-77
2024/02/09 14:44:07;;;;;;;2.90;0.10;;;12.90;99.90;;;;;;4996562;28;20499;-78